Time;durP1;ratioP1;P1;durP2;ratioP2;P2;SDS_P1;SDS_P2;PMS_P1;PMS_P2;Temp;Humidity;BMP_temperature;BMP_pressure;BME280_temperature;BME280_humidity;BME280_pressure;Samples;Min_cycle;Max_cycle;Signal;HPM_P1;HPM_P2
2023/08/29 00:00:56;;;;;;;15.90;14.10;;;;;;;28.42;100.00;98911.42;104373;1260;61448;-59
2023/08/29 00:03:27;;;;;;;;;;;;;;;28.36;100.00;98913.96;104447;1256;59864;-60
2023/08/29 00:06:00;;;;;;;14.90;13.40;;;;;;;28.35;100.00;98912.26;104445;1257;73779;-59
2023/08/29 00:08:27;;;;;;;16.20;14.30;;;;;;;28.30;100.00;98910.20;104390;1258;69286;-59
2023/08/29 00:11:00;;;;;;;15.40;13.90;;;;;;;28.30;100.00;98907.81;104408;1253;72927;-63
2023/08/29 00:13:28;;;;;;;15.20;13.80;;;;;;;28.23;100.00;98909.64;104374;1260;60988;-59
2023/08/29 00:15:56;;;;;;;15.20;13.90;;;;;;;28.19;100.00;98907.86;104259;1259;60555;-61
2023/08/29 00:18:23;;;;;;;;;;;;;;;28.18;100.00;98905.70;104553;1265;73610;-61
2023/08/29 00:20:51;;;;;;;15.10;13.70;;;;;;;28.19;100.00;98899.97;104840;1254;69249;-61
2023/08/29 00:23:19;;;;;;;;;;;;;;;28.17;100.00;98893.02;108046;1253;72399;-61
2023/08/29 00:25:46;;;;;;;;;;;;;;;28.14;100.00;98892.25;106739;1253;62360;-61
2023/08/29 00:28:14;;;;;;;15.00;13.50;;;;;;;28.19;100.00;98890.81;104547;1259;60463;-61
2023/08/29 00:30:41;;;;;;;;;;;;;;;28.21;100.00;98887.23;104543;1256;74056;-61
2023/08/29 00:33:11;;;;;;;15.80;13.90;;;;;;;28.22;100.00;98887.19;104525;1259;69291;-61
2023/08/29 00:35:39;;;;;;;16.10;14.50;;;;;;;28.22;100.00;98884.48;104379;1273;72927;-61
2023/08/29 00:38:09;;;;;;;17.40;15.50;;;;;;;28.23;100.00;98881.79;104422;1259;61854;-61
2023/08/29 00:40:37;;;;;;;16.10;14.60;;;;;;;28.20;100.00;98880.02;104366;1259;60527;-61
2023/08/29 00:43:08;;;;;;;17.80;15.20;;;;;;;28.15;100.00;98876.25;104504;1259;74087;-61
2023/08/29 00:45:38;;;;;;;16.80;15.10;;;;;;;28.10;100.00;98878.25;104355;1272;69364;-62
2023/08/29 00:48:06;;;;;;;15.50;14.00;;;;;;;28.07;100.00;98881.42;104477;1253;72369;-62
2023/08/29 00:50:34;;;;;;;16.80;15.10;;;;;;;28.07;100.00;98887.01;104243;1255;61456;-61
2023/08/29 00:53:03;;;;;;;;;;;;;;;28.02;100.00;98889.13;104402;1255;60594;-60
2023/08/29 00:55:32;;;;;;;16.00;14.60;;;;;;;27.99;100.00;98883.71;104403;1259;74209;-61
2023/08/29 00:58:02;;;;;;;18.00;14.50;;;;;;;28.02;100.00;98886.10;104527;1263;69812;-60
2023/08/29 01:00:31;;;;;;;17.00;15.40;;;;;;;28.03;100.00;98887.05;104221;1277;72896;-60
2023/08/29 01:02:59;;;;;;;16.70;15.00;;;;;;;27.96;100.00;98887.95;104371;1255;61631;-60
2023/08/29 01:05:30;;;;;;;17.70;15.70;;;;;;;27.91;100.00;98885.73;104366;1266;60557;-60
2023/08/29 01:07:59;;;;;;;17.10;15.30;;;;;;;27.89;100.00;98887.13;104378;1258;73646;-60
2023/08/29 01:10:51;;;;;;;17.00;15.40;;;;;;;27.89;100.00;98892.59;104306;1272;69993;-60
2023/08/29 01:13:29;;;;;;;17.00;15.60;;;;;;;27.95;100.00;98892.95;104459;1273;72138;-61
2023/08/29 01:15:58;;;;;;;16.30;14.70;;;;;;;27.95;100.00;98897.85;104249;1259;61410;-61
2023/08/29 01:18:27;;;;;;;17.20;15.70;;;;;;;27.90;100.00;98894.02;104349;1258;60195;-61
2023/08/29 01:20:59;;;;;;;16.50;14.90;;;;;;;27.87;100.00;98898.92;104284;1259;74292;-60
2023/08/29 01:23:40;;;;;;;18.60;15.20;;;;;;;27.85;100.00;98903.84;108153;1254;69189;-61
2023/08/29 01:26:15;;;;;;;16.30;14.70;;;;;;;27.81;100.00;98909.80;104301;1260;73114;-60
2023/08/29 01:28:43;;;;;;;17.30;15.50;;;;;;;27.76;100.00;98910.26;104378;1254;60809;-60
2023/08/29 01:31:11;;;;;;;16.80;15.30;;;;;;;27.73;100.00;98909.06;104340;1259;60151;-61
2023/08/29 01:33:39;;;;;;;17.90;16.00;;;;;;;27.72;100.00;98908.77;104377;1259;73704;-60
2023/08/29 01:36:07;;;;;;;17.40;15.80;;;;;;;27.71;100.00;98911.00;104436;1257;68229;-60
2023/08/29 01:38:35;;;;;;;18.30;16.00;;;;;;;27.68;100.00;98917.23;104372;1253;73388;-60
2023/08/29 01:41:02;;;;;;;;;;;;;;;27.71;100.00;98910.54;104626;1257;61406;-60
2023/08/29 01:43:30;;;;;;;17.90;16.00;;;;;;;27.67;100.00;98906.64;104410;1251;60872;-60
2023/08/29 01:45:58;;;;;;;17.40;15.00;;;;;;;27.63;100.00;98905.95;104478;1250;73874;-60
2023/08/29 01:48:25;;;;;;;;;;;;;;;27.64;100.00;98908.73;104642;1256;69052;-60
2023/08/29 01:50:53;;;;;;;16.80;15.00;;;;;;;27.62;100.00;98907.92;104339;1256;72393;-60
2023/08/29 01:53:21;;;;;;;17.50;15.90;;;;;;;27.57;100.00;98904.85;104406;1259;60575;-60
2023/08/29 01:55:49;;;;;;;18.00;16.20;;;;;;;27.59;100.00;98905.41;104456;1256;60583;-60
2023/08/29 01:58:16;;;;;;;17.80;16.20;;;;;;;27.52;100.00;98902.68;104492;1258;73537;-60
2023/08/29 02:00:44;;;;;;;18.20;16.50;;;;;;;27.48;100.00;98908.21;104673;1254;69351;-60
2023/08/29 02:03:12;;;;;;;;;;;;;;;27.44;100.00;98910.45;104450;1256;72471;-60
2023/08/29 02:05:41;;;;;;;17.70;16.00;;;;;;;27.50;100.00;98909.72;104476;1256;61400;-60
2023/08/29 02:08:08;;;;;;;18.70;16.20;;;;;;;27.51;100.00;98913.72;104553;1256;60451;-61
2023/08/29 02:10:36;;;;;;;16.80;15.00;;;;;;;27.53;100.00;98912.52;104230;1272;73914;-60
2023/08/29 02:13:04;;;;;;;18.00;16.20;;;;;;;27.52;100.00;98911.91;104466;1254;69543;-60
2023/08/29 02:15:32;;;;;;;17.60;16.10;;;;;;;27.52;100.00;98914.39;104480;1266;72545;-61
2023/08/29 02:17:59;;;;;;;;;;;;;;;27.49;100.00;98915.79;104640;1254;61840;-60
2023/08/29 02:20:28;;;;;;;17.10;15.50;;;;;;;27.53;100.00;98914.77;104532;1252;61227;-61
2023/08/29 02:22:58;;;;;;;18.40;16.40;;;;;;;27.51;100.00;98914.43;106575;1250;74937;-61
2023/08/29 02:25:25;;;;;;;17.50;15.80;;;;;;;27.48;100.00;98916.39;108485;1250;69601;-61
2023/08/29 02:27:55;;;;;;;17.20;15.70;;;;;;;27.49;100.00;98916.66;104985;1250;73402;-61
2023/08/29 02:30:23;;;;;;;19.90;17.00;;;;;;;27.49;100.00;98919.77;108509;1250;61867;-61
2023/08/29 02:32:55;;;;;;;18.50;16.50;;;;;;;27.42;100.00;98919.02;104933;1253;60624;-60
2023/08/29 02:35:22;;;;;;;18.60;16.80;;;;;;;27.41;100.00;98921.84;104490;1256;73656;-60
2023/08/29 02:37:50;;;;;;;18.50;16.70;;;;;;;27.40;100.00;98917.44;104828;1250;69928;-60
2023/08/29 02:40:20;;;;;;;18.70;16.50;;;;;;;27.41;100.00;98914.45;104534;1257;72463;-63
2023/08/29 02:42:48;;;;;;;19.50;17.60;;;;;;;27.42;100.00;98909.98;104447;1253;61434;-60
2023/08/29 02:45:16;;;;;;;;;;;;;;;27.43;100.00;98909.60;104336;1256;60617;-60
2023/08/29 02:47:43;;;;;;;;;;;;;;;27.41;100.00;98912.37;104234;1256;73764;-63
2023/08/29 02:50:14;;;;;;;17.70;16.20;;;;;;;27.34;100.00;98911.55;104218;1255;69279;-60
2023/08/29 02:52:41;;;;;;;18.50;16.60;;;;;;;27.31;100.00;98916.02;104510;1266;72447;-59
2023/08/29 02:55:09;;;;;;;;;;;;;;;27.34;100.00;98916.08;104380;1256;61406;-60
2023/08/29 02:57:38;;;;;;;18.10;16.40;;;;;;;27.32;100.00;98920.29;104422;1255;60572;-60
2023/08/29 03:00:07;;;;;;;20.00;18.00;;;;;;;27.29;100.00;98922.80;104265;1255;73700;-60
2023/08/29 03:02:34;;;;;;;20.70;17.60;;;;;;;27.25;100.00;98925.30;104324;1256;69187;-60
2023/08/29 03:05:02;;;;;;;;;;;;;;;27.25;100.00;98924.33;104343;1275;72459;-60
2023/08/29 03:07:30;;;;;;;17.20;15.50;;;;;;;27.22;100.00;98926.76;104319;1259;61847;-60
2023/08/29 03:09:58;;;;;;;;;;;;;;;27.18;100.00;98927.48;104215;1256;60515;-60
2023/08/29 03:12:25;;;;;;;;;;;;;;;27.13;100.00;98926.77;104357;1257;74086;-60
2023/08/29 03:14:53;;;;;;;17.10;15.70;;;;;;;27.10;100.00;98927.95;104326;1251;69098;-60
2023/08/29 03:17:22;;;;;;;18.90;16.90;;;;;;;27.12;100.00;98925.27;104334;1253;72508;-60
2023/08/29 03:19:53;;;;;;;18.50;16.70;;;;;;;27.14;100.00;98930.33;104243;1257;62292;-60
2023/08/29 03:22:21;;;;;;;19.40;17.10;;;;;;;27.20;100.00;98934.54;104314;1258;60087;-60
2023/08/29 03:24:49;;;;;;;18.50;16.00;;;;;;;27.18;100.00;98936.30;108438;1253;73635;-61
2023/08/29 03:27:16;;;;;;;;;;;;;;;27.20;100.00;98935.16;107742;1254;69182;-60
2023/08/29 03:29:44;;;;;;;19.60;17.50;;;;;;;27.20;100.00;98938.65;104253;1275;71905;-60
2023/08/29 03:32:12;;;;;;;;;;;;;;;27.22;100.00;98935.71;104315;1261;61798;-60
2023/08/29 03:34:39;;;;;;;19.20;17.40;;;;;;;27.27;100.00;98937.80;104516;1254;60590;-64
2023/08/29 03:37:07;;;;;;;19.00;17.40;;;;;;;27.30;100.00;98939.70;104243;1253;73919;-63
2023/08/29 03:39:35;;;;;;;;;;;;;;;27.30;100.00;98939.33;104225;1256;71748;-63
2023/08/29 03:42:03;;;;;;;;;;;;;;;27.37;100.00;98939.41;104365;1250;73093;-66
2023/08/29 03:44:32;;;;;;;17.50;15.90;;;;;;;27.37;100.00;98940.81;104218;1253;62378;-68
2023/08/29 03:46:59;;;;;;;;;;;;;;;27.42;100.00;98944.61;104325;1256;60540;-68
2023/08/29 03:49:27;;;;;;;21.60;17.80;;;;;;;27.42;100.00;98942.98;104191;1256;73594;-67
2023/08/29 03:51:55;;;;;;;18.80;17.30;;;;;;;27.49;100.00;98945.45;104275;1266;69068;-66
2023/08/29 03:54:23;;;;;;;19.10;17.30;;;;;;;27.53;100.00;98946.02;104299;1272;72356;-67
2023/08/29 03:56:50;;;;;;;;;;;;;;;27.60;100.00;98943.05;104232;1256;61728;-68
2023/08/29 03:59:18;;;;;;;19.20;17.40;;;;;;;27.75;100.00;98943.11;104390;1257;60331;-66
2023/08/29 04:01:48;;;;;;;22.10;17.90;;;;;;;27.76;100.00;98941.05;104291;1275;73940;-66
2023/08/29 04:04:16;;;;;;;19.50;17.70;;;;;;;27.85;100.00;98937.34;104347;1257;68274;-67
2023/08/29 04:06:46;;;;;;;20.70;18.70;;;;;;;27.90;100.00;98933.39;104310;1253;71303;-65
2023/08/29 04:09:14;;;;;;;18.30;16.80;;;;;;;27.88;100.00;98936.50;104319;1259;61649;-65
2023/08/29 04:11:42;;;;;;;;;;;;;;;27.91;100.00;98941.61;104256;1258;60906;-65
2023/08/29 04:14:09;;;;;;;;;;;;;;;27.93;100.00;98946.79;104349;1274;73541;-65
2023/08/29 04:16:39;;;;;;;19.10;17.20;;;;;;;27.96;100.00;98950.76;104418;1255;69477;-67
2023/08/29 04:19:07;;;;;;;;;;;;;;;27.99;100.00;98949.91;104656;1269;73148;-66
2023/08/29 04:21:35;;;;;;;18.40;16.70;;;;;;;28.04;100.00;98955.85;104502;1253;60699;-65
2023/08/29 04:24:02;;;;;;;;;;;;;;;28.08;100.00;98958.70;104404;1270;60886;-66
2023/08/29 04:26:30;;;;;;;18.90;17.20;;;;;;;28.12;100.00;98959.94;108499;1251;73643;-69
2023/08/29 04:28:58;;;;;;;18.90;17.30;;;;;;;28.18;100.00;98966.73;105528;1257;69189;-68
2023/08/29 04:31:25;;;;;;;20.10;17.90;;;;;;;28.28;100.00;98962.77;104365;1275;72484;-66
2023/08/29 04:33:53;;;;;;;;;;;;;;;28.28;100.00;98965.52;104343;1253;62247;-65
2023/08/29 04:36:21;;;;;;;19.90;17.90;;;;;;;28.26;100.00;98968.92;108109;1252;59416;-67
2023/08/29 04:38:48;;;;;;;20.80;18.90;;;;;;;28.34;100.00;98971.34;106509;1251;74058;-68
2023/08/29 04:41:16;;;;;;;;;;;;;;;28.41;100.00;98965.20;104423;1269;69223;-66
2023/08/29 04:43:44;;;;;;;19.60;17.80;;;;;;;28.46;100.00;98965.36;104507;1251;72395;-66
2023/08/29 04:46:11;;;;;;;19.40;17.50;;;;;;;28.45;100.00;98964.77;104372;1258;62394;-65
2023/08/29 04:48:39;;;;;;;;;;;;;;;28.50;100.00;98962.59;104383;1252;60453;-65
2023/08/29 04:51:06;;;;;;;;;;;;;;;28.55;100.00;98961.66;104458;1257;73572;-64
2023/08/29 04:53:34;;;;;;;;;;;;;;;28.56;100.00;98963.45;104573;1261;69450;-65
2023/08/29 04:56:03;;;;;;;18.40;16.80;;;;;;;28.59;100.00;98957.48;104569;1267;72561;-65
2023/08/29 04:58:34;;;;;;;20.90;18.80;;;;;;;28.64;100.00;98960.33;104450;1256;61582;-63
2023/08/29 05:01:02;;;;;;;21.10;19.10;;;;;;;28.73;100.00;98960.80;104872;1257;60642;-65
2023/08/29 05:03:32;;;;;;;20.10;18.10;;;;;;;28.78;100.00;98960.04;108566;1251;74105;-65
2023/08/29 05:06:00;;;;;;;19.80;17.60;;;;;;;28.82;100.00;98960.91;108531;1251;71730;-64
2023/08/29 05:08:34;;;;;;;19.80;18.00;;;;;;;28.89;100.00;98960.35;108169;1250;71964;-66
2023/08/29 05:11:02;;;;;;;19.30;17.50;;;;;;;28.99;100.00;98962.67;108455;1253;60529;-65
2023/08/29 05:13:30;;;;;;;19.60;17.80;;;;;;;29.05;100.00;98961.42;108397;1253;60077;-65
2023/08/29 05:15:59;;;;;;;19.10;17.20;;;;;;;29.15;100.00;98959.90;108429;1251;74510;-65
2023/08/29 05:18:27;;;;;;;21.60;17.90;;;;;;;29.26;100.00;98964.31;108519;1250;69210;-65
2023/08/29 05:20:57;;;;;;;20.60;17.30;;;;;;;29.37;100.00;98967.57;108447;1251;72770;-64
2023/08/29 05:23:24;;;;;;;;;;;;;;;29.49;100.00;98971.26;108450;1254;61867;-66
2023/08/29 05:25:52;;;;;;;18.90;17.10;;;;;;;29.58;100.00;98975.06;108597;1250;59523;-66
2023/08/29 05:28:20;;;;;;;18.20;16.30;;;;;;;29.67;100.00;98970.63;108588;1250;73692;-65
2023/08/29 05:30:48;;;;;;;19.10;17.20;;;;;;;29.73;100.00;98970.61;108599;1250;70115;-67
2023/08/29 05:33:15;;;;;;;18.60;16.80;;;;;;;29.79;100.00;98968.72;108598;1252;72358;-66
2023/08/29 05:38:47;;;;;;;19.20;17.10;;;;;;;30.06;100.00;98970.56;102707;1289;603341;-66
2023/08/29 05:41:15;;;;;;;20.20;17.80;;;;;;;30.09;100.00;98971.40;106739;1267;61966;-64
2023/08/29 05:43:45;;;;;;;18.60;17.00;;;;;;;30.15;100.00;98971.11;103519;1267;59359;-64
2023/08/29 05:46:13;;;;;;;;;;;;;;;30.27;100.00;98967.65;103938;1269;72390;-63
2023/08/29 05:48:41;;;;;;;18.20;16.30;;;;;;;30.34;100.00;98966.79;104068;1269;69234;-63
2023/08/29 05:51:08;;;;;;;20.60;16.90;;;;;;;30.37;100.00;98963.02;104207;1270;72469;-63
2023/08/29 05:53:36;;;;;;;;;;;;;;;30.46;100.00;98960.31;103729;1267;260232;-61
2023/08/29 05:56:03;;;;;;;;;;;;;;;30.55;100.00;98957.41;104038;1264;59493;-64
2023/08/29 05:58:31;;;;;;;18.10;16.50;;;;;;;30.65;100.00;98959.73;103750;1266;72117;-62
2023/08/29 06:00:59;;;;;;;18.80;17.20;;;;;;;30.73;100.00;98958.66;104350;1261;69688;-61
2023/08/29 06:03:27;;;;;;;18.40;16.60;;;;;;;30.75;100.00;98962.16;104188;1273;72681;-67
2023/08/29 06:05:55;;;;;;;27.30;18.10;;;;;;;30.85;100.00;98961.84;104191;1262;62362;-62
2023/08/29 06:08:23;;;;;;;23.30;17.60;;;;;;;30.81;100.00;98958.73;104404;1261;60660;-62
2023/08/29 06:10:52;;;;;;;18.70;16.80;;;;;;;30.82;100.00;98962.64;104400;1262;72904;-62
2023/08/29 06:13:19;;;;;;;18.40;16.60;;;;;;;30.86;100.00;98962.96;104320;1261;69711;-61
2023/08/29 06:15:47;;;;;;;19.80;16.30;;;;;;;30.92;100.00;98965.80;104087;1262;72901;-62
2023/08/29 06:18:14;;;;;;;17.80;16.20;;;;;;;30.96;100.00;98965.25;104225;1262;63299;-63
2023/08/29 06:20:42;;;;;;;19.10;16.30;;;;;;;30.99;100.00;98967.70;104405;1257;59781;-63
2023/08/29 06:23:10;;;;;;;;;;;;;;;31.21;100.00;98968.66;104252;1263;72946;-62
2023/08/29 06:25:37;;;;;;;23.10;15.80;;;;;;;31.29;100.00;98969.32;107452;1255;69335;-65
2023/08/29 06:28:05;;;;;;;18.10;16.40;;;;;;;31.36;100.00;98964.58;107024;1260;72471;-65
2023/08/29 06:30:34;;;;;;;20.90;17.50;;;;;;;31.32;100.00;98960.95;104853;1257;61478;-65
2023/08/29 06:33:06;;;;;;;18.30;16.60;;;;;;;31.40;100.00;98960.33;104299;1255;61455;-65
2023/08/29 06:35:37;;;;;;;22.60;17.10;;;;;;;31.48;100.00;98953.95;104408;1260;73230;-65
2023/08/29 06:38:53;;;;;;;18.30;16.50;;;;;;;31.06;100.00;98959.74;101626;1295;600921;-64
2023/08/29 06:41:21;;;;;;;;;;;;;;;31.64;100.00;98955.20;103903;1267;61456;-65
2023/08/29 06:43:49;;;;;;;17.30;15.40;;;;;;;31.70;100.00;98952.27;103459;1272;59588;-65
2023/08/29 06:46:16;;;;;;;;;;;;;;;31.79;100.00;98953.22;103708;1274;75584;-62
2023/08/29 06:48:46;;;;;;;19.80;16.30;;;;;;;31.86;100.00;98953.16;103479;1271;69743;-62
2023/08/29 06:51:14;;;;;;;16.30;14.80;;;;;;;31.80;100.00;98951.03;103292;1271;72440;-62
2023/08/29 06:53:41;;;;;;;;;;;;;;;31.86;100.00;98951.23;103511;1268;415619;-60
2023/08/29 06:56:09;;;;;;;17.90;16.30;;;;;;;32.00;100.00;98946.70;103836;1266;59838;-64
2023/08/29 06:58:38;;;;;;;17.30;15.60;;;;;;;32.09;100.00;98950.15;104163;1268;72080;-69
2023/08/29 07:01:06;;;;;;;18.50;15.70;;;;;;;32.22;100.00;98947.24;103841;1281;69254;-67
2023/08/29 07:03:33;;;;;;;18.90;16.30;;;;;;;32.35;100.00;98949.80;103870;1269;72298;-66
2023/08/29 07:06:01;;;;;;;18.90;16.30;;;;;;;32.41;100.00;98948.58;104067;1265;61416;-66
2023/08/29 07:08:30;;;;;;;17.50;15.70;;;;;;;32.44;100.00;98949.96;104114;1263;60673;-67
2023/08/29 07:10:57;;;;;;;;;;;;;;;32.56;100.00;98952.20;104189;1273;73834;-66
2023/08/29 07:13:25;;;;;;;18.20;16.40;;;;;;;32.70;100.00;98954.25;104204;1272;69375;-67
2023/08/29 07:15:53;;;;;;;18.80;16.70;;;;;;;32.77;100.00;98952.02;104123;1259;73374;-66
2023/08/29 07:18:20;;;;;;;17.10;15.30;;;;;;;32.82;100.00;98953.51;103914;1258;61409;-66
2023/08/29 07:20:49;;;;;;;16.80;15.30;;;;;;;32.90;100.00;98954.34;104400;1263;59760;-67
2023/08/29 07:23:17;;;;;;;21.90;16.40;;;;;;;33.03;100.00;98955.91;104452;1257;74961;-67
2023/08/29 07:25:44;;;;;;;;;;;;;;;33.13;100.00;98957.86;106530;1256;69140;-66
2023/08/29 07:28:15;;;;;;;17.50;15.70;;;;;;;33.27;100.00;98956.89;107580;1256;72366;-69
2023/08/29 07:30:45;;;;;;;24.00;15.50;;;;;;;33.26;100.00;98956.23;104518;1262;62370;-68
2023/08/29 07:33:14;;;;;;;16.40;14.70;;;;;;;33.37;100.00;98958.88;104999;1257;61144;-70
2023/08/29 07:35:41;;;;;;;16.30;14.60;;;;;;;33.44;100.00;98956.26;104261;1262;73830;-68
2023/08/29 07:38:09;;;;;;;16.00;14.40;;;;;;;33.56;100.00;98957.60;104196;1263;68423;-68
2023/08/29 07:40:37;;;;;;;16.10;14.50;;;;;;;33.69;99.81;98954.60;103944;1259;72563;-68
2023/08/29 07:43:06;;;;;;;15.80;14.40;;;;;;;33.74;99.00;98955.32;103911;1273;61619;-69
2023/08/29 07:45:34;;;;;;;15.40;13.90;;;;;;;33.80;97.02;98955.47;104500;1256;59836;-68
2023/08/29 07:48:02;;;;;;;15.30;13.60;;;;;;;33.81;96.04;98956.33;104328;1261;72871;-68
2023/08/29 07:50:30;;;;;;;16.10;14.50;;;;;;;33.90;95.40;98955.36;104156;1262;69383;-68
2023/08/29 07:52:58;;;;;;;14.50;13.20;;;;;;;33.99;96.02;98951.98;104025;1263;72418;-67
2023/08/29 07:55:26;;;;;;;16.40;13.70;;;;;;;34.23;92.68;98954.38;104500;1257;61811;-67
2023/08/29 07:57:53;;;;;;;;;;;;;;;34.37;89.29;98955.36;104457;1256;59931;-69
2023/08/29 08:00:21;;;;;;;14.60;13.40;;;;;;;34.50;85.73;98954.95;104314;1262;72980;-68
2023/08/29 08:02:49;;;;;;;16.10;13.30;;;;;;;34.52;86.28;98951.70;104223;1256;70026;-67
2023/08/29 08:05:17;;;;;;;17.00;13.70;;;;;;;34.52;89.21;98954.44;104186;1262;72970;-65
2023/08/29 08:07:45;;;;;;;19.20;13.30;;;;;;;34.64;87.20;98949.38;104428;1259;61627;-66
2023/08/29 08:10:14;;;;;;;14.00;12.20;;;;;;;34.73;87.27;98956.30;104476;1262;60700;-66
2023/08/29 08:12:41;;;;;;;13.40;12.00;;;;;;;34.71;83.88;98950.89;104445;1262;73857;-65
2023/08/29 08:15:09;;;;;;;14.80;12.50;;;;;;;34.82;81.56;98951.20;104075;1261;69119;-65
2023/08/29 08:17:37;;;;;;;13.90;12.00;;;;;;;34.89;79.76;98953.58;104096;1262;73372;-68
2023/08/29 08:20:08;;;;;;;17.40;12.20;;;;;;;34.96;79.81;98955.20;104495;1260;61514;-66
2023/08/29 08:22:39;;;;;;;13.90;12.40;;;;;;;35.03;79.79;98956.38;104246;1262;60096;-66
2023/08/29 08:25:09;;;;;;;13.70;11.30;;;;;;;35.06;78.47;98954.62;103845;1260;72847;-66
2023/08/29 08:27:36;;;;;;;20.70;12.00;;;;;;;35.10;73.51;98950.95;106786;1258;70075;-67
2023/08/29 08:30:13;;;;;;;;;;;;;;;35.16;73.37;98943.54;106572;1259;72951;-68
2023/08/29 08:32:44;;;;;;;16.40;12.00;;;;;;;35.26;73.19;98949.64;104188;1262;59890;-64
2023/08/29 08:35:11;;;;;;;15.10;11.40;;;;;;;35.27;71.25;98938.91;107568;1256;60106;-64
2023/08/29 08:37:39;;;;;;;12.50;11.10;;;;;;;35.32;69.29;98943.08;107587;1256;71938;-64
2023/08/29 08:40:09;;;;;;;;;;;;;;;35.35;68.63;98938.40;107058;1260;69176;-64
2023/08/29 08:42:41;;;;;;;15.50;10.70;;;;;;;35.50;66.83;98937.85;104253;1262;72890;-64
2023/08/29 08:45:10;;;;;;;13.30;11.20;;;;;;;35.55;65.60;98931.55;104212;1263;61893;-62
2023/08/29 08:47:38;;;;;;;14.00;12.00;;;;;;;35.65;65.31;98929.74;104158;1262;60345;-64
2023/08/29 08:50:10;;;;;;;12.90;11.70;;;;;;;35.68;64.43;98928.35;104041;1267;73093;-64
2023/08/29 08:52:38;;;;;;;11.90;10.80;;;;;;;35.89;61.06;98926.50;104277;1272;69238;-64
2023/08/29 08:55:06;;;;;;;13.00;11.20;;;;;;;36.01;60.35;98924.02;104213;1260;72544;-67
2023/08/29 08:57:34;;;;;;;13.50;10.60;;;;;;;36.06;61.38;98923.34;104181;1261;59846;-65
2023/08/29 09:00:06;;;;;;;9.80;8.20;;;;;;;36.10;57.22;98921.64;103819;1263;60069;-64
2023/08/29 09:02:33;;;;;;;10.80;9.80;;;;;;;36.18;54.35;98922.55;103866;1262;72813;-64
2023/08/29 09:05:01;;;;;;;12.20;10.60;;;;;;;36.17;54.28;98919.14;104016;1262;69190;-64
2023/08/29 09:07:29;;;;;;;10.90;10.00;;;;;;;36.19;55.80;98915.63;104262;1262;72533;-64
2023/08/29 09:10:10;;;;;;;10.30;9.30;;;;;;;36.30;55.41;98914.48;103926;1262;59781;-66
2023/08/29 09:12:48;;;;;;;10.70;9.70;;;;;;;36.44;51.72;98910.57;103959;1263;60118;-65
2023/08/29 09:15:17;;;;;;;11.00;9.90;;;;;;;36.46;49.87;98907.46;104087;1266;73248;-66
2023/08/29 09:17:46;;;;;;;9.70;8.70;;;;;;;36.49;50.12;98910.08;103986;1259;69057;-63
2023/08/29 09:20:14;;;;;;;11.30;9.80;;;;;;;36.69;48.10;98909.48;103982;1257;72915;-63
2023/08/29 09:22:42;;;;;;;10.30;8.40;;;;;;;36.73;47.63;98907.73;104216;1270;59907;-63
2023/08/29 09:25:11;;;;;;;10.70;9.10;;;;;;;36.67;46.77;98906.02;104145;1261;60690;-63
2023/08/29 09:27:41;;;;;;;10.30;9.20;;;;;;;36.74;47.76;98908.04;107876;1257;72306;-65
2023/08/29 09:30:10;;;;;;;11.50;9.10;;;;;;;36.74;47.58;98906.83;105554;1262;68648;-66
2023/08/29 09:32:50;;;;;;;16.00;9.80;;;;;;;36.88;46.81;98904.58;107612;1258;72918;-70
2023/08/29 09:35:21;;;;;;;12.00;9.30;;;;;;;37.04;46.91;98904.98;104123;1264;59750;-65
2023/08/29 09:37:53;;;;;;;10.70;9.50;;;;;;;37.10;46.90;98908.23;104109;1256;60464;-64
2023/08/29 09:40:21;;;;;;;11.20;9.90;;;;;;;37.15;47.29;98908.61;104094;1262;73246;-64
2023/08/29 09:42:58;;;;;;;11.50;10.50;;;;;;;37.11;47.30;98905.44;104348;1261;70303;-63
2023/08/29 09:45:29;;;;;;;11.60;9.00;;;;;;;37.21;45.58;98901.75;104300;1260;71885;-66
2023/08/29 09:48:06;;;;;;;13.90;9.30;;;;;;;37.24;45.09;98902.10;104382;1262;59888;-64
2023/08/29 09:50:35;;;;;;;13.50;9.20;;;;;;;37.32;43.56;98904.42;104089;1264;59792;-64
2023/08/29 09:53:03;;;;;;;10.00;9.10;;;;;;;37.39;43.88;98904.94;104314;1262;72929;-65
2023/08/29 09:55:34;;;;;;;15.00;9.20;;;;;;;37.50;43.88;98900.75;104311;1263;69482;-64
2023/08/29 09:58:05;;;;;;;10.70;9.50;;;;;;;37.53;42.99;98897.55;104026;1262;72722;-64
2023/08/29 10:00:37;;;;;;;10.90;9.70;;;;;;;37.56;41.42;98892.48;103970;1262;60334;-64
2023/08/29 10:03:09;;;;;;;13.70;9.30;;;;;;;37.65;41.28;98891.83;104699;1262;59831;-65
2023/08/29 10:05:40;;;;;;;10.90;9.30;;;;;;;37.66;41.20;98889.52;103971;1270;72861;-66
2023/08/29 10:08:11;;;;;;;10.20;8.70;;;;;;;37.74;40.95;98892.66;103936;1262;69504;-65
2023/08/29 10:10:41;;;;;;;9.80;8.50;;;;;;;37.81;40.64;98892.84;103893;1263;72399;-65
2023/08/29 10:13:10;;;;;;;10.80;9.00;;;;;;;37.88;40.03;98892.71;104209;1262;60113;-64
2023/08/29 10:15:39;;;;;;;9.90;8.10;;;;;;;37.88;40.02;98896.11;104312;1268;59676;-64
2023/08/29 10:18:07;;;;;;;8.70;7.90;;;;;;;37.87;39.52;98895.66;103883;1262;73711;-65
2023/08/29 10:20:37;;;;;;;9.60;8.60;;;;;;;37.94;39.59;98893.15;103857;1281;69181;-65
2023/08/29 10:23:05;;;;;;;10.60;8.40;;;;;;;38.00;38.51;98889.34;103902;1265;72309;-65
2023/08/29 10:25:35;;;;;;;9.20;7.80;;;;;;;38.04;38.65;98889.92;103925;1257;60633;-64
2023/08/29 10:28:03;;;;;;;9.70;8.60;;;;;;;38.11;37.77;98893.79;106291;1256;59723;-64
2023/08/29 10:30:31;;;;;;;11.50;8.50;;;;;;;38.19;37.83;98895.86;107616;1257;72254;-65
2023/08/29 10:33:01;;;;;;;12.00;7.90;;;;;;;38.26;37.10;98901.17;105548;1262;69143;-64
2023/08/29 10:35:31;;;;;;;11.00;7.80;;;;;;;38.29;36.20;98898.66;107565;1262;73198;-65
2023/08/29 10:38:01;;;;;;;13.50;8.00;;;;;;;38.28;36.39;98896.15;107603;1258;59840;-65
2023/08/29 10:40:35;;;;;;;9.70;8.20;;;;;;;38.34;36.34;98895.13;107598;1257;59831;-65
2023/08/29 10:43:19;;;;;;;10.40;8.80;;;;;;;38.41;35.81;98893.90;104266;1262;72959;-64
2023/08/29 10:45:46;;;;;;;10.70;8.30;;;;;;;38.43;35.54;98890.73;103913;1262;68288;-64
2023/08/29 10:48:21;;;;;;;10.40;7.70;;;;;;;38.47;36.08;98893.27;104293;1263;73428;-65
2023/08/29 10:51:11;;;;;;;9.40;8.50;;;;;;;38.51;35.08;98891.11;103956;1273;62074;-64
2023/08/29 10:53:52;;;;;;;9.70;8.70;;;;;;;38.58;34.95;98890.52;104154;1270;60992;-64
2023/08/29 10:56:26;;;;;;;10.40;8.20;;;;;;;38.60;33.93;98892.54;104110;1262;72706;-62
2023/08/29 10:58:55;;;;;;;12.70;8.90;;;;;;;38.63;34.08;98891.66;104258;1262;69262;-63
2023/08/29 11:01:36;;;;;;;12.90;8.50;;;;;;;38.64;33.98;98891.30;104219;1262;72665;-62
2023/08/29 11:04:16;;;;;;;8.90;8.00;;;;;;;38.65;32.69;98889.31;104111;1263;60534;-65
2023/08/29 11:06:53;;;;;;;17.20;9.30;;;;;;;38.68;32.91;98891.09;104054;1257;60737;-63
2023/08/29 11:09:22;;;;;;;10.00;8.90;;;;;;;38.67;33.37;98889.05;103978;1280;73559;-63
2023/08/29 11:12:16;;;;;;;11.10;8.90;;;;;;;38.62;33.24;98887.66;103915;1271;70335;-64
2023/08/29 11:14:51;;;;;;;11.60;9.30;;;;;;;38.65;33.44;98888.94;103949;1280;73361;-63
2023/08/29 11:17:23;;;;;;;12.30;9.80;;;;;;;38.69;33.90;98884.02;103998;1270;60582;-63
2023/08/29 11:19:55;;;;;;;10.60;9.50;;;;;;;38.72;33.77;98884.69;104065;1262;60640;-63
2023/08/29 11:22:28;;;;;;;11.10;10.00;;;;;;;38.71;34.70;98889.52;103946;1259;73579;-63
2023/08/29 11:24:56;;;;;;;12.10;9.60;;;;;;;38.75;35.93;98885.73;106221;1262;69062;-63
2023/08/29 11:27:28;;;;;;;11.50;9.50;;;;;;;38.83;35.37;98884.17;103966;1272;71228;-62
2023/08/29 11:29:59;;;;;;;12.40;10.10;;;;;;;38.93;34.93;98889.59;105325;1257;60446;-63
2023/08/29 18:56:14;;;;;;;16.40;12.00;;;;;;;30.61;100.00;98916.32;101257;1294;603277;-62